sensor_id;sensor_type;location;lat;lon;timestamp;P1;durP1;ratioP1;P2;durP2;ratioP2
14116;SDS011;7137;51.436;6.544;2022-10-13T00:01:16;11.07;;;8.93;;
14116;SDS011;7137;51.436;6.544;2022-10-13T00:04:19;11.90;;;8.60;;
14116;SDS011;7137;51.436;6.544;2022-10-13T00:07:22;13.47;;;8.73;;
14116;SDS011;7137;51.436;6.544;2022-10-13T00:10:24;11.97;;;8.97;;
14116;SDS011;7137;51.436;6.544;2022-10-13T00:13:26;13.37;;;8.73;;
14116;SDS011;7137;51.436;6.544;2022-10-13T00:16:29;13.27;;;9.00;;
14116;SDS011;7137;51.436;6.544;2022-10-13T00:19:31;12.67;;;8.77;;
14116;SDS011;7137;51.436;6.544;2022-10-13T00:22:34;13.77;;;9.50;;
14116;SDS011;7137;51.436;6.544;2022-10-13T00:25:39;14.03;;;9.50;;
14116;SDS011;7137;51.436;6.544;2022-10-13T00:28:42;13.47;;;9.10;;
14116;SDS011;7137;51.436;6.544;2022-10-13T00:31:44;13.13;;;9.37;;
14116;SDS011;7137;51.436;6.544;2022-10-13T00:34:45;11.83;;;8.80;;
14116;SDS011;7137;51.436;6.544;2022-10-13T00:37:48;14.93;;;9.50;;
14116;SDS011;7137;51.436;6.544;2022-10-13T00:40:50;11.47;;;8.90;;
14116;SDS011;7137;51.436;6.544;2022-10-13T00:43:55;14.03;;;9.53;;
14116;SDS011;7137;51.436;6.544;2022-10-13T00:46:59;13.77;;;10.03;;
14116;SDS011;7137;51.436;6.544;2022-10-13T00:50:00;14.73;;;9.80;;
14116;SDS011;7137;51.436;6.544;2022-10-13T00:53:05;13.33;;;9.43;;
14116;SDS011;7137;51.436;6.544;2022-10-13T00:56:08;14.57;;;9.60;;
14116;SDS011;7137;51.436;6.544;2022-10-13T00:59:12;15.07;;;9.83;;
14116;SDS011;7137;51.436;6.544;2022-10-13T01:02:21;12.40;;;9.23;;
14116;SDS011;7137;51.436;6.544;2022-10-13T01:05:28;15.40;;;9.50;;
14116;SDS011;7137;51.436;6.544;2022-10-13T01:08:32;11.53;;;9.23;;
14116;SDS011;7137;51.436;6.544;2022-10-13T01:11:38;13.20;;;10.07;;
14116;SDS011;7137;51.436;6.544;2022-10-13T01:14:53;17.07;;;10.60;;
14116;SDS011;7137;51.436;6.544;2022-10-13T01:18:08;14.00;;;10.23;;
14116;SDS011;7137;51.436;6.544;2022-10-13T01:21:17;15.67;;;10.53;;
14116;SDS011;7137;51.436;6.544;2022-10-13T01:24:36;13.13;;;10.43;;
14116;SDS011;7137;51.436;6.544;2022-10-13T01:27:58;13.80;;;10.33;;
14116;SDS011;7137;51.436;6.544;2022-10-13T01:31:18;13.23;;;9.90;;
14116;SDS011;7137;51.436;6.544;2022-10-13T01:34:27;13.10;;;10.43;;
14116;SDS011;7137;51.436;6.544;2022-10-13T01:37:36;12.60;;;10.07;;
14116;SDS011;7137;51.436;6.544;2022-10-13T01:40:45;12.50;;;10.07;;
14116;SDS011;7137;51.436;6.544;2022-10-13T01:43:56;14.10;;;9.70;;
14116;SDS011;7137;51.436;6.544;2022-10-13T01:47:05;12.80;;;9.77;;
14116;SDS011;7137;51.436;6.544;2022-10-13T01:50:09;13.97;;;10.30;;
14116;SDS011;7137;51.436;6.544;2022-10-13T01:53:11;13.13;;;9.53;;
14116;SDS011;7137;51.436;6.544;2022-10-13T01:56:17;11.83;;;9.20;;
14116;SDS011;7137;51.436;6.544;2022-10-13T01:59:19;12.97;;;9.47;;
14116;SDS011;7137;51.436;6.544;2022-10-13T02:02:25;14.10;;;10.77;;
14116;SDS011;7137;51.436;6.544;2022-10-13T02:05:34;11.87;;;9.77;;
14116;SDS011;7137;51.436;6.544;2022-10-13T02:08:43;12.60;;;9.77;;
14116;SDS011;7137;51.436;6.544;2022-10-13T02:11:51;14.10;;;9.97;;
14116;SDS011;7137;51.436;6.544;2022-10-13T02:14:56;12.43;;;9.80;;
14116;SDS011;7137;51.436;6.544;2022-10-13T02:18:02;13.80;;;10.17;;
14116;SDS011;7137;51.436;6.544;2022-10-13T02:21:04;12.80;;;9.93;;
14116;SDS011;7137;51.436;6.544;2022-10-13T02:24:06;15.20;;;10.13;;
14116;SDS011;7137;51.436;6.544;2022-10-13T02:27:09;12.70;;;9.77;;
14116;SDS011;7137;51.436;6.544;2022-10-13T02:30:19;13.63;;;9.43;;
14116;SDS011;7137;51.436;6.544;2022-10-13T02:33:22;13.33;;;9.63;;
14116;SDS011;7137;51.436;6.544;2022-10-13T02:36:24;11.40;;;9.30;;
14116;SDS011;7137;51.436;6.544;2022-10-13T02:39:25;13.53;;;9.57;;
14116;SDS011;7137;51.436;6.544;2022-10-13T02:42:27;14.07;;;9.77;;
14116;SDS011;7137;51.436;6.544;2022-10-13T02:45:28;13.97;;;10.00;;
14116;SDS011;7137;51.436;6.544;2022-10-13T02:48:31;13.87;;;10.17;;
14116;SDS011;7137;51.436;6.544;2022-10-13T02:51:33;13.23;;;10.10;;
14116;SDS011;7137;51.436;6.544;2022-10-13T02:54:35;13.07;;;9.40;;
14116;SDS011;7137;51.436;6.544;2022-10-13T02:57:36;12.77;;;9.20;;
14116;SDS011;7137;51.436;6.544;2022-10-13T03:00:38;14.57;;;10.13;;
14116;SDS011;7137;51.436;6.544;2022-10-13T03:03:41;12.97;;;9.97;;
14116;SDS011;7137;51.436;6.544;2022-10-13T03:10:39;14.53;;;9.60;;
14116;SDS011;7137;51.436;6.544;2022-10-13T03:13:41;13.17;;;9.20;;
14116;SDS011;7137;51.436;6.544;2022-10-13T03:16:42;12.63;;;9.53;;
14116;SDS011;7137;51.436;6.544;2022-10-13T03:19:45;14.57;;;9.53;;
14116;SDS011;7137;51.436;6.544;2022-10-13T03:22:47;13.33;;;9.37;;
14116;SDS011;7137;51.436;6.544;2022-10-13T03:25:48;13.10;;;10.03;;
14116;SDS011;7137;51.436;6.544;2022-10-13T03:28:50;15.07;;;10.03;;
14116;SDS011;7137;51.436;6.544;2022-10-13T03:31:52;13.70;;;10.00;;
14116;SDS011;7137;51.436;6.544;2022-10-13T03:34:55;14.27;;;9.87;;
14116;SDS011;7137;51.436;6.544;2022-10-13T03:37:56;15.93;;;10.03;;
14116;SDS011;7137;51.436;6.544;2022-10-13T03:41:02;13.27;;;10.00;;
14116;SDS011;7137;51.436;6.544;2022-10-13T03:44:05;11.73;;;9.63;;
14116;SDS011;7137;51.436;6.544;2022-10-13T03:47:07;13.57;;;10.13;;
14116;SDS011;7137;51.436;6.544;2022-10-13T03:50:11;13.37;;;10.23;;
14116;SDS011;7137;51.436;6.544;2022-10-13T03:53:13;12.80;;;10.10;;
14116;SDS011;7137;51.436;6.544;2022-10-13T03:56:15;14.87;;;10.40;;
14116;SDS011;7137;51.436;6.544;2022-10-13T03:59:19;17.33;;;10.33;;
14116;SDS011;7137;51.436;6.544;2022-10-13T04:02:21;13.03;;;9.53;;
14116;SDS011;7137;51.436;6.544;2022-10-13T04:05:24;14.73;;;10.30;;
14116;SDS011;7137;51.436;6.544;2022-10-13T04:08:25;15.07;;;10.53;;
14116;SDS011;7137;51.436;6.544;2022-10-13T04:11:27;15.37;;;10.83;;
14116;SDS011;7137;51.436;6.544;2022-10-13T04:14:29;14.07;;;9.73;;
14116;SDS011;7137;51.436;6.544;2022-10-13T04:17:31;13.27;;;9.80;;
14116;SDS011;7137;51.436;6.544;2022-10-13T04:20:35;14.53;;;10.03;;
14116;SDS011;7137;51.436;6.544;2022-10-13T04:23:38;12.63;;;9.83;;
14116;SDS011;7137;51.436;6.544;2022-10-13T04:26:40;13.20;;;10.23;;
14116;SDS011;7137;51.436;6.544;2022-10-13T04:29:41;13.73;;;10.53;;
14116;SDS011;7137;51.436;6.544;2022-10-13T04:32:43;12.60;;;10.47;;
14116;SDS011;7137;51.436;6.544;2022-10-13T04:35:45;12.80;;;10.10;;
14116;SDS011;7137;51.436;6.544;2022-10-13T04:38:48;15.33;;;10.67;;
14116;SDS011;7137;51.436;6.544;2022-10-13T04:41:50;13.90;;;9.93;;
14116;SDS011;7137;51.436;6.544;2022-10-13T04:44:51;13.10;;;9.57;;
14116;SDS011;7137;51.436;6.544;2022-10-13T04:47:53;14.10;;;10.13;;
14116;SDS011;7137;51.436;6.544;2022-10-13T04:50:59;14.53;;;10.57;;
14116;SDS011;7137;51.436;6.544;2022-10-13T04:54:01;12.80;;;10.63;;
14116;SDS011;7137;51.436;6.544;2022-10-13T04:57:04;15.30;;;10.80;;
14116;SDS011;7137;51.436;6.544;2022-10-13T05:00:07;13.57;;;10.23;;
14116;SDS011;7137;51.436;6.544;2022-10-13T05:03:09;14.97;;;10.77;;
14116;SDS011;7137;51.436;6.544;2022-10-13T05:06:15;14.33;;;10.83;;
14116;SDS011;7137;51.436;6.544;2022-10-13T05:09:18;15.60;;;11.63;;
14116;SDS011;7137;51.436;6.544;2022-10-13T05:12:21;14.50;;;10.60;;
14116;SDS011;7137;51.436;6.544;2022-10-13T05:15:22;12.97;;;10.50;;
14116;SDS011;7137;51.436;6.544;2022-10-13T05:18:24;11.97;;;10.53;;
14116;SDS011;7137;51.436;6.544;2022-10-13T05:21:27;14.80;;;10.77;;
14116;SDS011;7137;51.436;6.544;2022-10-13T05:24:29;14.70;;;10.87;;
14116;SDS011;7137;51.436;6.544;2022-10-13T05:27:35;14.50;;;10.37;;
14116;SDS011;7137;51.436;6.544;2022-10-13T05:30:37;14.13;;;10.97;;
14116;SDS011;7137;51.436;6.544;2022-10-13T05:33:38;14.27;;;11.03;;
14116;SDS011;7137;51.436;6.544;2022-10-13T05:36:42;13.87;;;11.00;;
14116;SDS011;7137;51.436;6.544;2022-10-13T05:39:45;15.00;;;10.33;;
14116;SDS011;7137;51.436;6.544;2022-10-13T05:42:47;16.40;;;11.47;;
14116;SDS011;7137;51.436;6.544;2022-10-13T05:45:49;13.63;;;11.43;;
14116;SDS011;7137;51.436;6.544;2022-10-13T05:48:51;15.57;;;11.60;;
14116;SDS011;7137;51.436;6.544;2022-10-13T05:51:55;16.20;;;11.43;;
14116;SDS011;7137;51.436;6.544;2022-10-13T05:55:00;15.07;;;11.43;;
14116;SDS011;7137;51.436;6.544;2022-10-13T05:58:04;14.13;;;11.10;;
14116;SDS011;7137;51.436;6.544;2022-10-13T06:01:06;13.40;;;10.53;;
14116;SDS011;7137;51.436;6.544;2022-10-13T06:04:10;15.47;;;11.33;;
14116;SDS011;7137;51.436;6.544;2022-10-13T06:07:16;12.13;;;10.60;;
14116;SDS011;7137;51.436;6.544;2022-10-13T06:10:18;14.63;;;11.23;;
14116;SDS011;7137;51.436;6.544;2022-10-13T06:13:19;12.80;;;10.60;;
14116;SDS011;7137;51.436;6.544;2022-10-13T06:16:21;14.70;;;11.60;;
14116;SDS011;7137;51.436;6.544;2022-10-13T06:19:22;15.60;;;11.10;;
14116;SDS011;7137;51.436;6.544;2022-10-13T06:22:25;16.07;;;11.80;;
14116;SDS011;7137;51.436;6.544;2022-10-13T06:25:26;13.90;;;12.00;;
14116;SDS011;7137;51.436;6.544;2022-10-13T06:28:28;15.87;;;11.60;;
14116;SDS011;7137;51.436;6.544;2022-10-13T06:31:30;15.47;;;11.63;;
14116;SDS011;7137;51.436;6.544;2022-10-13T06:34:32;15.93;;;11.23;;
14116;SDS011;7137;51.436;6.544;2022-10-13T06:37:35;15.37;;;10.90;;
14116;SDS011;7137;51.436;6.544;2022-10-13T06:40:36;15.33;;;11.30;;
14116;SDS011;7137;51.436;6.544;2022-10-13T06:43:37;16.20;;;11.13;;
14116;SDS011;7137;51.436;6.544;2022-10-13T06:46:39;14.80;;;12.23;;
14116;SDS011;7137;51.436;6.544;2022-10-13T06:49:40;14.10;;;11.77;;
14116;SDS011;7137;51.436;6.544;2022-10-13T06:52:43;12.70;;;10.57;;
14116;SDS011;7137;51.436;6.544;2022-10-13T06:55:45;12.73;;;10.73;;
14116;SDS011;7137;51.436;6.544;2022-10-13T06:58:47;11.63;;;10.00;;
14116;SDS011;7137;51.436;6.544;2022-10-13T07:01:49;13.27;;;10.13;;
14116;SDS011;7137;51.436;6.544;2022-10-13T07:04:51;15.57;;;11.00;;
14116;SDS011;7137;51.436;6.544;2022-10-13T07:07:54;11.87;;;9.63;;
14116;SDS011;7137;51.436;6.544;2022-10-13T07:10:55;12.27;;;10.13;;
14116;SDS011;7137;51.436;6.544;2022-10-13T07:13:57;14.40;;;9.60;;
14116;SDS011;7137;51.436;6.544;2022-10-13T07:16:59;11.67;;;9.40;;
14116;SDS011;7137;51.436;6.544;2022-10-13T07:20:02;10.47;;;8.73;;
14116;SDS011;7137;51.436;6.544;2022-10-13T07:23:05;14.77;;;10.00;;
14116;SDS011;7137;51.436;6.544;2022-10-13T07:26:07;12.47;;;9.50;;
14116;SDS011;7137;51.436;6.544;2022-10-13T07:29:10;12.00;;;9.27;;
14116;SDS011;7137;51.436;6.544;2022-10-13T07:32:12;12.53;;;9.50;;
14116;SDS011;7137;51.436;6.544;2022-10-13T07:35:13;12.23;;;9.73;;
14116;SDS011;7137;51.436;6.544;2022-10-13T07:38:16;13.57;;;10.70;;
14116;SDS011;7137;51.436;6.544;2022-10-13T07:41:18;13.53;;;9.33;;
14116;SDS011;7137;51.436;6.544;2022-10-13T07:44:19;13.37;;;9.63;;
14116;SDS011;7137;51.436;6.544;2022-10-13T07:47:21;12.53;;;9.87;;
14116;SDS011;7137;51.436;6.544;2022-10-13T07:50:22;12.00;;;9.97;;
14116;SDS011;7137;51.436;6.544;2022-10-13T07:53:25;12.90;;;9.03;;
14116;SDS011;7137;51.436;6.544;2022-10-13T07:56:27;12.73;;;9.00;;
14116;SDS011;7137;51.436;6.544;2022-10-13T07:59:28;11.57;;;9.10;;
14116;SDS011;7137;51.436;6.544;2022-10-13T08:02:32;13.33;;;9.00;;
14116;SDS011;7137;51.436;6.544;2022-10-13T08:05:35;14.37;;;9.23;;
14116;SDS011;7137;51.436;6.544;2022-10-13T08:08:38;15.20;;;9.83;;
14116;SDS011;7137;51.436;6.544;2022-10-13T08:11:40;11.87;;;9.83;;
14116;SDS011;7137;51.436;6.544;2022-10-13T08:14:41;12.80;;;9.50;;
14116;SDS011;7137;51.436;6.544;2022-10-13T08:17:42;14.23;;;10.70;;
14116;SDS011;7137;51.436;6.544;2022-10-13T08:20:44;13.53;;;10.10;;
14116;SDS011;7137;51.436;6.544;2022-10-13T08:23:47;13.07;;;9.93;;
14116;SDS011;7137;51.436;6.544;2022-10-13T08:26:49;12.03;;;9.60;;
14116;SDS011;7137;51.436;6.544;2022-10-13T08:29:50;13.03;;;10.40;;
14116;SDS011;7137;51.436;6.544;2022-10-13T08:32:53;13.97;;;10.97;;
14116;SDS011;7137;51.436;6.544;2022-10-13T08:35:55;12.23;;;10.20;;
14116;SDS011;7137;51.436;6.544;2022-10-13T08:38:58;16.23;;;11.00;;
14116;SDS011;7137;51.436;6.544;2022-10-13T08:41:59;13.90;;;11.00;;
14116;SDS011;7137;51.436;6.544;2022-10-13T08:45:01;14.43;;;10.70;;
14116;SDS011;7137;51.436;6.544;2022-10-13T08:48:05;15.83;;;10.63;;
14116;SDS011;7137;51.436;6.544;2022-10-13T08:51:12;14.27;;;9.50;;
14116;SDS011;7137;51.436;6.544;2022-10-13T08:54:17;14.73;;;10.27;;
14116;SDS011;7137;51.436;6.544;2022-10-13T08:57:21;13.83;;;10.20;;
14116;SDS011;7137;51.436;6.544;2022-10-13T09:00:23;14.60;;;10.20;;
14116;SDS011;7137;51.436;6.544;2022-10-13T09:03:25;15.77;;;10.33;;
14116;SDS011;7137;51.436;6.544;2022-10-13T09:06:30;13.67;;;9.77;;
14116;SDS011;7137;51.436;6.544;2022-10-13T09:09:37;14.03;;;10.03;;
14116;SDS011;7137;51.436;6.544;2022-10-13T09:12:38;15.13;;;9.50;;
14116;SDS011;7137;51.436;6.544;2022-10-13T09:15:41;13.43;;;9.20;;
14116;SDS011;7137;51.436;6.544;2022-10-13T09:18:43;13.30;;;8.97;;
14116;SDS011;7137;51.436;6.544;2022-10-13T09:21:45;14.97;;;9.27;;
14116;SDS011;7137;51.436;6.544;2022-10-13T09:24:47;14.03;;;9.70;;
14116;SDS011;7137;51.436;6.544;2022-10-13T09:28:18;11.83;;;8.70;;
14116;SDS011;7137;51.436;6.544;2022-10-13T09:31:23;11.03;;;8.33;;
14116;SDS011;7137;51.436;6.544;2022-10-13T09:34:26;12.27;;;8.50;;
14116;SDS011;7137;51.436;6.544;2022-10-13T09:37:29;12.80;;;8.40;;
14116;SDS011;7137;51.436;6.544;2022-10-13T09:40:32;13.30;;;8.70;;
14116;SDS011;7137;51.436;6.544;2022-10-13T09:43:35;13.53;;;8.60;;
14116;SDS011;7137;51.436;6.544;2022-10-13T09:46:47;12.03;;;7.93;;
14116;SDS011;7137;51.436;6.544;2022-10-13T09:49:59;15.40;;;8.90;;
14116;SDS011;7137;51.436;6.544;2022-10-13T09:53:14;15.57;;;9.03;;
14116;SDS011;7137;51.436;6.544;2022-10-13T09:56:22;11.27;;;8.30;;
14116;SDS011;7137;51.436;6.544;2022-10-13T09:59:30;13.33;;;9.03;;
14116;SDS011;7137;51.436;6.544;2022-10-13T10:02:36;12.23;;;8.50;;
14116;SDS011;7137;51.436;6.544;2022-10-13T10:05:43;14.93;;;7.93;;
14116;SDS011;7137;51.436;6.544;2022-10-13T10:08:51;15.40;;;8.50;;
14116;SDS011;7137;51.436;6.544;2022-10-13T10:11:59;13.03;;;8.50;;
14116;SDS011;7137;51.436;6.544;2022-10-13T10:15:04;11.47;;;8.17;;
14116;SDS011;7137;51.436;6.544;2022-10-13T10:18:20;12.20;;;8.10;;
14116;SDS011;7137;51.436;6.544;2022-10-13T10:21:31;12.50;;;7.80;;
14116;SDS011;7137;51.436;6.544;2022-10-13T10:24:40;12.13;;;7.80;;
14116;SDS011;7137;51.436;6.544;2022-10-13T10:27:51;11.87;;;8.17;;
14116;SDS011;7137;51.436;6.544;2022-10-13T10:31:05;10.93;;;7.37;;
14116;SDS011;7137;51.436;6.544;2022-10-13T10:34:27;11.93;;;7.47;;
14116;SDS011;7137;51.436;6.544;2022-10-13T10:37:36;13.23;;;7.40;;
14116;SDS011;7137;51.436;6.544;2022-10-13T10:40:50;10.70;;;7.40;;
14116;SDS011;7137;51.436;6.544;2022-10-13T10:44:01;9.97;;;6.73;;
14116;SDS011;7137;51.436;6.544;2022-10-13T10:47:10;13.07;;;7.37;;
14116;SDS011;7137;51.436;6.544;2022-10-13T10:50:18;14.57;;;7.33;;
14116;SDS011;7137;51.436;6.544;2022-10-13T10:53:21;12.47;;;7.70;;
14116;SDS011;7137;51.436;6.544;2022-10-13T10:56:32;9.03;;;6.87;;
14116;SDS011;7137;51.436;6.544;2022-10-13T10:59:46;10.13;;;7.27;;
14116;SDS011;7137;51.436;6.544;2022-10-13T11:02:56;11.27;;;7.77;;
14116;SDS011;7137;51.436;6.544;2022-10-13T11:06:04;12.13;;;7.37;;
14116;SDS011;7137;51.436;6.544;2022-10-13T11:16:29;10.80;;;6.70;;
14116;SDS011;7137;51.436;6.544;2022-10-13T11:19:33;9.93;;;5.77;;
14116;SDS011;7137;51.436;6.544;2022-10-13T11:22:36;9.63;;;5.50;;
14116;SDS011;7137;51.436;6.544;2022-10-13T11:25:38;8.50;;;5.53;;
14116;SDS011;7137;51.436;6.544;2022-10-13T11:28:45;9.33;;;4.80;;
14116;SDS011;7137;51.436;6.544;2022-10-13T11:31:53;8.53;;;5.47;;
14116;SDS011;7137;51.436;6.544;2022-10-13T11:34:56;9.07;;;5.17;;
14116;SDS011;7137;51.436;6.544;2022-10-13T11:38:02;9.73;;;4.83;;
14116;SDS011;7137;51.436;6.544;2022-10-13T11:41:18;7.43;;;4.90;;
14116;SDS011;7137;51.436;6.544;2022-10-13T11:44:26;7.83;;;5.50;;
14116;SDS011;7137;51.436;6.544;2022-10-13T11:47:42;9.23;;;6.00;;
14116;SDS011;7137;51.436;6.544;2022-10-13T11:51:02;8.20;;;5.40;;
14116;SDS011;7137;51.436;6.544;2022-10-13T11:54:13;8.23;;;5.13;;
14116;SDS011;7137;51.436;6.544;2022-10-13T11:57:24;9.77;;;5.43;;
14116;SDS011;7137;51.436;6.544;2022-10-13T12:00:27;7.33;;;5.03;;
14116;SDS011;7137;51.436;6.544;2022-10-13T12:03:30;9.10;;;4.97;;
14116;SDS011;7137;51.436;6.544;2022-10-13T12:06:33;9.03;;;5.47;;
14116;SDS011;7137;51.436;6.544;2022-10-13T12:09:39;8.43;;;5.40;;
14116;SDS011;7137;51.436;6.544;2022-10-13T12:12:50;8.47;;;5.13;;
14116;SDS011;7137;51.436;6.544;2022-10-13T12:15:58;7.33;;;4.87;;
14116;SDS011;7137;51.436;6.544;2022-10-13T12:19:19;9.90;;;5.13;;
14116;SDS011;7137;51.436;6.544;2022-10-13T12:22:22;6.70;;;4.70;;
14116;SDS011;7137;51.436;6.544;2022-10-13T12:25:24;7.70;;;4.60;;
14116;SDS011;7137;51.436;6.544;2022-10-13T12:28:28;8.20;;;4.90;;
14116;SDS011;7137;51.436;6.544;2022-10-13T12:31:43;7.77;;;4.80;;
14116;SDS011;7137;51.436;6.544;2022-10-13T12:34:48;8.23;;;4.87;;
14116;SDS011;7137;51.436;6.544;2022-10-13T12:37:49;9.87;;;5.53;;
14116;SDS011;7137;51.436;6.544;2022-10-13T12:40:52;8.97;;;4.97;;
14116;SDS011;7137;51.436;6.544;2022-10-13T12:43:54;8.87;;;4.90;;
14116;SDS011;7137;51.436;6.544;2022-10-13T12:46:56;8.40;;;5.57;;
14116;SDS011;7137;51.436;6.544;2022-10-13T12:53:37;7.73;;;5.40;;
14116;SDS011;7137;51.436;6.544;2022-10-13T12:56:40;9.73;;;5.27;;
14116;SDS011;7137;51.436;6.544;2022-10-13T12:59:43;9.50;;;5.30;;
14116;SDS011;7137;51.436;6.544;2022-10-13T13:02:46;9.63;;;5.30;;
14116;SDS011;7137;51.436;6.544;2022-10-13T13:06:05;7.83;;;5.20;;
14116;SDS011;7137;51.436;6.544;2022-10-13T13:09:19;9.17;;;4.93;;
14116;SDS011;7137;51.436;6.544;2022-10-13T13:12:24;8.23;;;5.27;;
14116;SDS011;7137;51.436;6.544;2022-10-13T13:15:31;7.43;;;5.10;;
14116;SDS011;7137;51.436;6.544;2022-10-13T13:18:36;8.23;;;5.20;;
14116;SDS011;7137;51.436;6.544;2022-10-13T13:21:38;9.20;;;4.93;;
14116;SDS011;7137;51.436;6.544;2022-10-13T13:24:41;9.50;;;5.20;;
14116;SDS011;7137;51.436;6.544;2022-10-13T13:27:43;8.63;;;5.00;;
14116;SDS011;7137;51.436;6.544;2022-10-13T13:30:44;7.47;;;5.10;;
14116;SDS011;7137;51.436;6.544;2022-10-13T13:33:46;9.13;;;5.30;;
14116;SDS011;7137;51.436;6.544;2022-10-13T13:36:48;9.30;;;5.87;;
14116;SDS011;7137;51.436;6.544;2022-10-13T13:39:51;9.90;;;5.83;;
14116;SDS011;7137;51.436;6.544;2022-10-13T13:42:53;8.13;;;5.30;;
14116;SDS011;7137;51.436;6.544;2022-10-13T13:45:55;7.43;;;5.00;;
14116;SDS011;7137;51.436;6.544;2022-10-13T13:48:57;9.83;;;6.10;;
14116;SDS011;7137;51.436;6.544;2022-10-13T13:51:58;8.23;;;5.50;;
14116;SDS011;7137;51.436;6.544;2022-10-13T13:55:02;8.47;;;4.90;;
14116;SDS011;7137;51.436;6.544;2022-10-13T13:58:03;8.97;;;5.40;;
14116;SDS011;7137;51.436;6.544;2022-10-13T14:01:05;10.60;;;6.03;;
14116;SDS011;7137;51.436;6.544;2022-10-13T14:04:06;8.43;;;5.53;;
14116;SDS011;7137;51.436;6.544;2022-10-13T14:07:08;11.83;;;6.60;;
14116;SDS011;7137;51.436;6.544;2022-10-13T14:10:11;10.33;;;6.47;;
14116;SDS011;7137;51.436;6.544;2022-10-13T14:13:12;11.53;;;7.47;;
14116;SDS011;7137;51.436;6.544;2022-10-13T14:16:14;11.60;;;7.37;;
14116;SDS011;7137;51.436;6.544;2022-10-13T14:19:18;11.03;;;7.27;;
14116;SDS011;7137;51.436;6.544;2022-10-13T14:22:19;9.47;;;7.47;;
14116;SDS011;7137;51.436;6.544;2022-10-13T14:25:22;10.73;;;8.07;;
14116;SDS011;7137;51.436;6.544;2022-10-13T14:28:23;11.10;;;7.93;;
14116;SDS011;7137;51.436;6.544;2022-10-13T14:31:25;10.40;;;8.53;;
14116;SDS011;7137;51.436;6.544;2022-10-13T14:34:27;10.27;;;8.17;;
14116;SDS011;7137;51.436;6.544;2022-10-13T14:37:29;12.70;;;10.00;;
14116;SDS011;7137;51.436;6.544;2022-10-13T14:40:32;14.77;;;10.13;;
14116;SDS011;7137;51.436;6.544;2022-10-13T14:43:33;14.10;;;10.83;;
14116;SDS011;7137;51.436;6.544;2022-10-13T14:46:35;11.23;;;9.30;;
14116;SDS011;7137;51.436;6.544;2022-10-13T14:49:37;10.33;;;8.77;;
14116;SDS011;7137;51.436;6.544;2022-10-13T14:52:39;12.27;;;8.67;;
14116;SDS011;7137;51.436;6.544;2022-10-13T14:55:41;13.70;;;8.77;;
14116;SDS011;7137;51.436;6.544;2022-10-13T14:58:43;13.73;;;8.77;;
14116;SDS011;7137;51.436;6.544;2022-10-13T15:01:45;13.00;;;9.20;;
14116;SDS011;7137;51.436;6.544;2022-10-13T15:04:48;12.03;;;8.90;;
14116;SDS011;7137;51.436;6.544;2022-10-13T15:07:49;13.17;;;8.93;;
14116;SDS011;7137;51.436;6.544;2022-10-13T15:10:58;10.57;;;8.13;;
14116;SDS011;7137;51.436;6.544;2022-10-13T15:13:59;13.80;;;8.47;;
14116;SDS011;7137;51.436;6.544;2022-10-13T15:17:01;10.00;;;7.33;;
14116;SDS011;7137;51.436;6.544;2022-10-13T15:24:02;9.23;;;7.20;;
14116;SDS011;7137;51.436;6.544;2022-10-13T15:27:05;10.00;;;7.67;;
14116;SDS011;7137;51.436;6.544;2022-10-13T15:30:07;9.00;;;7.13;;
14116;SDS011;7137;51.436;6.544;2022-10-13T15:33:09;8.73;;;7.37;;
14116;SDS011;7137;51.436;6.544;2022-10-13T15:36:10;9.83;;;7.60;;
14116;SDS011;7137;51.436;6.544;2022-10-13T15:39:12;13.20;;;10.10;;
14116;SDS011;7137;51.436;6.544;2022-10-13T15:42:15;11.43;;;10.00;;
14116;SDS011;7137;51.436;6.544;2022-10-13T15:45:17;11.80;;;7.83;;
14116;SDS011;7137;51.436;6.544;2022-10-13T15:48:18;11.17;;;8.07;;
14116;SDS011;7137;51.436;6.544;2022-10-13T15:51:21;16.27;;;12.07;;
14116;SDS011;7137;51.436;6.544;2022-10-13T15:54:25;13.57;;;11.93;;
14116;SDS011;7137;51.436;6.544;2022-10-13T15:57:28;13.37;;;9.50;;
14116;SDS011;7137;51.436;6.544;2022-10-13T16:00:31;11.63;;;9.23;;
14116;SDS011;7137;51.436;6.544;2022-10-13T16:03:33;11.97;;;9.90;;
14116;SDS011;7137;51.436;6.544;2022-10-13T16:06:34;11.70;;;9.60;;
14116;SDS011;7137;51.436;6.544;2022-10-13T16:09:36;13.33;;;10.17;;
14116;SDS011;7137;51.436;6.544;2022-10-13T16:12:39;12.53;;;10.13;;
14116;SDS011;7137;51.436;6.544;2022-10-13T16:15:41;14.07;;;11.27;;
14116;SDS011;7137;51.436;6.544;2022-10-13T16:18:43;14.33;;;11.47;;
14116;SDS011;7137;51.436;6.544;2022-10-13T16:21:45;12.83;;;10.13;;
14116;SDS011;7137;51.436;6.544;2022-10-13T16:24:46;13.50;;;10.80;;
14116;SDS011;7137;51.436;6.544;2022-10-13T16:27:49;13.67;;;11.30;;
14116;SDS011;7137;51.436;6.544;2022-10-13T16:30:51;13.90;;;11.30;;
14116;SDS011;7137;51.436;6.544;2022-10-13T16:33:52;18.43;;;11.90;;
14116;SDS011;7137;51.436;6.544;2022-10-13T16:36:54;13.73;;;10.90;;
14116;SDS011;7137;51.436;6.544;2022-10-13T16:39:55;14.70;;;10.30;;
14116;SDS011;7137;51.436;6.544;2022-10-13T16:42:59;14.20;;;11.77;;
14116;SDS011;7137;51.436;6.544;2022-10-13T16:46:01;13.90;;;11.77;;
14116;SDS011;7137;51.436;6.544;2022-10-13T16:49:04;13.50;;;11.53;;
14116;SDS011;7137;51.436;6.544;2022-10-13T16:52:05;12.87;;;11.07;;
14116;SDS011;7137;51.436;6.544;2022-10-13T16:55:07;13.57;;;10.80;;
14116;SDS011;7137;51.436;6.544;2022-10-13T16:58:10;12.10;;;10.80;;
14116;SDS011;7137;51.436;6.544;2022-10-13T17:01:12;13.07;;;11.57;;
14116;SDS011;7137;51.436;6.544;2022-10-13T17:04:13;13.60;;;12.07;;
14116;SDS011;7137;51.436;6.544;2022-10-13T17:07:15;12.47;;;11.17;;
14116;SDS011;7137;51.436;6.544;2022-10-13T17:10:16;13.00;;;11.53;;
14116;SDS011;7137;51.436;6.544;2022-10-13T17:13:19;12.37;;;10.77;;
14116;SDS011;7137;51.436;6.544;2022-10-13T17:16:21;12.07;;;10.23;;
14116;SDS011;7137;51.436;6.544;2022-10-13T17:19:22;12.03;;;10.60;;
14116;SDS011;7137;51.436;6.544;2022-10-13T17:22:24;14.90;;;11.77;;
14116;SDS011;7137;51.436;6.544;2022-10-13T17:25:26;13.13;;;11.17;;
14116;SDS011;7137;51.436;6.544;2022-10-13T17:28:28;14.17;;;10.70;;
14116;SDS011;7137;51.436;6.544;2022-10-13T17:31:30;13.63;;;12.00;;
14116;SDS011;7137;51.436;6.544;2022-10-13T17:34:31;11.73;;;10.53;;
14116;SDS011;7137;51.436;6.544;2022-10-13T17:37:34;12.97;;;11.17;;
14116;SDS011;7137;51.436;6.544;2022-10-13T17:40:35;11.03;;;9.53;;
14116;SDS011;7137;51.436;6.544;2022-10-13T17:43:38;11.47;;;9.93;;
14116;SDS011;7137;51.436;6.544;2022-10-13T17:46:41;12.00;;;10.10;;
14116;SDS011;7137;51.436;6.544;2022-10-13T17:49:42;11.17;;;9.67;;
14116;SDS011;7137;51.436;6.544;2022-10-13T17:52:44;11.37;;;9.73;;
14116;SDS011;7137;51.436;6.544;2022-10-13T17:55:45;12.37;;;9.73;;
14116;SDS011;7137;51.436;6.544;2022-10-13T17:58:48;11.60;;;9.43;;
14116;SDS011;7137;51.436;6.544;2022-10-13T18:01:50;13.03;;;10.27;;
14116;SDS011;7137;51.436;6.544;2022-10-13T18:04:52;13.13;;;10.80;;
14116;SDS011;7137;51.436;6.544;2022-10-13T18:07:55;13.10;;;11.37;;
14116;SDS011;7137;51.436;6.544;2022-10-13T18:10:56;13.70;;;12.23;;
14116;SDS011;7137;51.436;6.544;2022-10-13T18:14:05;14.80;;;13.03;;
14116;SDS011;7137;51.436;6.544;2022-10-13T18:17:07;13.77;;;12.20;;
14116;SDS011;7137;51.436;6.544;2022-10-13T18:20:10;16.90;;;13.03;;
14116;SDS011;7137;51.436;6.544;2022-10-13T18:23:11;14.30;;;12.37;;
14116;SDS011;7137;51.436;6.544;2022-10-13T18:26:14;14.37;;;12.17;;
14116;SDS011;7137;51.436;6.544;2022-10-13T18:29:18;14.30;;;12.83;;
14116;SDS011;7137;51.436;6.544;2022-10-13T18:32:19;14.30;;;12.37;;
14116;SDS011;7137;51.436;6.544;2022-10-13T18:35:21;13.87;;;11.63;;
14116;SDS011;7137;51.436;6.544;2022-10-13T18:38:23;16.67;;;13.27;;
14116;SDS011;7137;51.436;6.544;2022-10-13T18:41:24;14.03;;;12.63;;